Terminal Aerodrome Forecast
Issued by NWS

Home | Current Version | Previous Version | Text Only | Print | Product List | Glossary On
Versions: 1 2 3 4 5 6 7 8 9 10 11 12 13 14 15 16 17 18 19 20 21 22 23 24 25 26 27 28 29 30 31 32
000
FTUS43 KLOT 241120
TAFORD
TAF
KORD 241120Z 2412/2518 31005KT P6SM -SN OVC015
      TEMPO 2412/2415 5SM -FZDZ BR
     FM242000 27006KT P6SM BKN025
     FM250600 19004KT P6SM SCT250
     FM251500 17007KT P6SM BKN250=

USA.gov is the U.S. government's official web portal to all federal, state and local government web resources and services.